createdAt,value
2023-03-06T00:01:08.606Z,14.80
2023-03-06T00:03:38.394Z,15.00
2023-03-06T00:06:05.828Z,14.80
2023-03-06T00:08:32.911Z,14.80
2023-03-06T00:11:00.763Z,14.80
2023-03-06T00:13:29.946Z,14.80
2023-03-06T00:16:00.823Z,14.80
2023-03-06T00:18:28.021Z,14.60
2023-03-06T00:20:55.079Z,14.80
2023-03-06T00:23:22.522Z,14.80
2023-03-06T00:25:49.694Z,15.20
2023-03-06T00:28:17.654Z,14.80
2023-03-06T00:30:46.358Z,14.80
2023-03-06T00:33:13.470Z,14.80
2023-03-06T00:35:41.703Z,14.90
2023-03-06T00:38:11.319Z,15.30
2023-03-06T00:40:38.394Z,14.80
2023-03-06T00:43:05.551Z,14.70
2023-03-06T00:45:32.792Z,14.90
2023-03-06T00:47:59.938Z,15.10
2023-03-06T00:50:27.456Z,14.90
2023-03-06T00:52:54.702Z,14.90
2023-03-06T00:55:21.913Z,14.40
2023-03-06T00:57:48.978Z,14.90
2023-03-06T01:00:16.355Z,14.80
2023-03-06T01:02:46.069Z,14.80
2023-03-06T01:05:14.090Z,14.80
2023-03-06T01:07:41.195Z,14.70
2023-03-06T01:10:10.257Z,14.70
2023-03-06T01:12:37.352Z,14.70
2023-03-06T01:15:05.447Z,14.70
2023-03-06T01:17:32.515Z,14.70
2023-03-06T01:19:59.628Z,14.70
2023-03-06T01:22:26.739Z,14.70
2023-03-06T01:24:54.996Z,14.80
2023-03-06T01:27:22.388Z,14.80
2023-03-06T01:29:52.089Z,14.90
2023-03-06T01:32:19.163Z,14.50
2023-03-06T01:34:46.197Z,14.90
2023-03-06T01:37:13.411Z,14.90
2023-03-06T01:39:40.521Z,13.90
2023-03-06T01:42:07.652Z,14.90
2023-03-06T01:44:34.705Z,14.90
2023-03-06T01:47:02.370Z,14.90
2023-03-06T01:49:36.701Z,14.90
2023-03-06T01:52:18.978Z,14.90
2023-03-06T01:55:00.410Z,14.90
2023-03-06T01:57:35.477Z,14.90
2023-03-06T02:00:11.485Z,14.90
2023-03-06T02:02:41.957Z,14.90
2023-03-06T02:05:09.667Z,14.90
2023-03-06T02:07:38.041Z,14.90
2023-03-06T02:10:06.344Z,14.90
2023-03-06T02:12:33.878Z,14.90
2023-03-06T02:15:01.152Z,14.90
2023-03-06T02:17:29.087Z,14.90
2023-03-06T02:20:12.444Z,14.90
2023-03-06T02:22:57.601Z,14.90
2023-03-06T02:25:35.628Z,14.90
2023-03-06T02:28:04.946Z,14.90
2023-03-06T02:30:32.441Z,14.90
2023-03-06T02:33:00.086Z,14.80
2023-03-06T02:35:30.439Z,14.80
2023-03-06T02:38:07.913Z,14.80
2023-03-06T02:40:35.021Z,14.70
2023-03-06T02:43:02.165Z,14.70
2023-03-06T02:45:44.364Z,14.70
2023-03-06T02:48:13.172Z,15.70
2023-03-06T02:50:41.312Z,14.80
2023-03-06T02:53:09.912Z,15.20
2023-03-06T02:55:37.640Z,14.80
2023-03-06T02:58:05.887Z,14.90
2023-03-06T03:00:33.691Z,14.90
2023-03-06T03:03:01.360Z,14.90
2023-03-06T03:05:28.450Z,14.90
2023-03-06T03:07:55.548Z,14.90
2023-03-06T03:10:22.622Z,14.90
2023-03-06T03:12:50.334Z,14.90
2023-03-06T03:15:17.841Z,14.90
2023-03-06T03:17:44.940Z,14.90
2023-03-06T03:20:16.815Z,14.80
2023-03-06T03:22:51.632Z,14.80
2023-03-06T03:25:19.807Z,14.80
2023-03-06T03:27:48.071Z,14.80
2023-03-06T03:30:15.865Z,14.70
2023-03-06T03:32:43.495Z,14.70
2023-03-06T03:35:13.158Z,14.70
2023-03-06T03:37:40.203Z,14.70
2023-03-06T03:40:08.057Z,14.70
2023-03-06T03:42:35.128Z,14.70
2023-03-06T03:45:02.255Z,14.70
2023-03-06T03:47:29.293Z,14.60
2023-03-06T03:49:56.352Z,15.20
2023-03-06T03:52:23.483Z,14.80
2023-03-06T03:54:50.538Z,15.40
2023-03-06T03:57:17.630Z,14.80
2023-03-06T03:59:44.746Z,15.10
2023-03-06T04:02:11.927Z,14.90
2023-03-06T04:04:39.090Z,14.90
2023-03-06T04:07:06.600Z,14.90
2023-03-06T04:09:33.686Z,14.90
2023-03-06T04:12:00.825Z,15.10
2023-03-06T04:14:27.866Z,14.80
2023-03-06T04:16:54.945Z,14.80
2023-03-06T04:19:21.991Z,14.80
2023-03-06T04:21:49.088Z,14.80
2023-03-06T04:24:16.315Z,14.80
2023-03-06T04:26:43.374Z,14.80
2023-03-06T04:29:10.452Z,14.80
2023-03-06T04:31:37.547Z,14.80
2023-03-06T04:34:07.214Z,14.80
2023-03-06T04:36:35.156Z,14.80
2023-03-06T04:39:03.108Z,15.50
2023-03-06T04:41:30.638Z,15.80
2023-03-06T04:43:57.877Z,14.80
2023-03-06T04:46:24.937Z,14.90
2023-03-06T04:48:52.018Z,14.80
2023-03-06T04:51:19.082Z,15.00
2023-03-06T04:53:46.136Z,15.10
2023-03-06T04:56:13.401Z,14.90
2023-03-06T04:58:40.583Z,16.00
2023-03-06T05:01:07.697Z,14.90
2023-03-06T05:03:34.849Z,14.90
2023-03-06T05:06:02.110Z,14.90
2023-03-06T05:08:29.924Z,14.90
2023-03-06T05:11:01.227Z,14.30
2023-03-06T05:13:29.081Z,14.80
2023-03-06T05:16:01.244Z,14.80
2023-03-06T05:18:28.296Z,14.70
2023-03-06T05:20:59.354Z,14.70
2023-03-06T05:23:28.043Z,14.90
2023-03-06T05:25:55.321Z,14.80
2023-03-06T05:28:22.716Z,15.30
2023-03-06T05:30:50.125Z,14.80
2023-03-06T05:33:17.625Z,14.80
2023-03-06T05:35:48.578Z,14.80
2023-03-06T05:38:16.726Z,14.80
2023-03-06T05:40:44.680Z,14.80
2023-03-06T05:43:12.447Z,14.70
2023-03-06T05:45:40.610Z,14.80
2023-03-06T05:48:08.501Z,14.80
2023-03-06T05:50:35.588Z,14.80
2023-03-06T05:53:03.325Z,14.60
2023-03-06T05:55:30.438Z,14.80
2023-03-06T05:57:57.543Z,15.30
2023-03-06T06:00:27.071Z,14.90
2023-03-06T06:02:54.301Z,14.90
2023-03-06T06:05:21.389Z,14.90
2023-03-06T06:07:48.447Z,14.90
2023-03-06T06:10:15.502Z,14.90
2023-03-06T06:12:42.593Z,15.50
2023-03-06T06:15:09.973Z,14.90
2023-03-06T06:17:37.082Z,14.90
2023-03-06T06:20:04.604Z,14.90
2023-03-06T06:22:31.717Z,14.90
2023-03-06T06:24:58.817Z,15.00
2023-03-06T06:27:25.888Z,14.90
2023-03-06T06:29:53.007Z,14.90
2023-03-06T06:32:22.706Z,14.90
2023-03-06T06:34:49.753Z,14.90
2023-03-06T06:37:16.833Z,15.00
2023-03-06T06:39:43.933Z,14.90
2023-03-06T06:42:29.873Z,15.00
2023-03-06T06:44:58.348Z,15.10
2023-03-06T06:47:26.127Z,14.90
2023-03-06T06:49:54.934Z,14.90
2023-03-06T06:52:24.931Z,14.90
2023-03-06T06:54:52.795Z,14.90
2023-03-06T06:57:19.962Z,14.90
2023-03-06T06:59:52.402Z,14.90
2023-03-06T07:02:20.928Z,14.90
2023-03-06T07:05:02.508Z,14.90
2023-03-06T07:07:31.256Z,14.80
2023-03-06T07:09:58.306Z,14.60
2023-03-06T07:12:27.840Z,14.80
2023-03-06T07:14:56.442Z,14.90
2023-03-06T07:17:23.516Z,14.60
2023-03-06T07:19:50.875Z,14.90
2023-03-06T07:22:17.943Z,14.90
2023-03-06T07:24:45.014Z,14.90
2023-03-06T07:27:12.083Z,14.90
2023-03-06T07:29:39.147Z,14.90
2023-03-06T07:32:06.455Z,14.90
2023-03-06T07:34:33.580Z,14.90
2023-03-06T07:37:00.623Z,14.90
2023-03-06T07:39:29.921Z,15.30
2023-03-06T07:41:58.519Z,14.90
2023-03-06T07:44:25.626Z,14.90
2023-03-06T07:46:52.885Z,14.90
2023-03-06T07:49:20.069Z,14.90
2023-03-06T07:51:47.202Z,14.90
2023-03-06T07:54:16.743Z,14.90
2023-03-06T07:56:43.852Z,14.90
2023-03-06T07:59:11.707Z,15.10
2023-03-06T08:01:40.111Z,14.90
2023-03-06T08:04:07.324Z,14.90
2023-03-06T08:06:34.490Z,14.90
2023-03-06T08:09:01.697Z,14.90
2023-03-06T08:11:32.807Z,14.90
2023-03-06T08:14:00.149Z,14.90
2023-03-06T08:16:30.057Z,14.90
2023-03-06T08:18:58.031Z,14.90
2023-03-06T08:21:27.536Z,14.90
2023-03-06T08:23:55.079Z,15.70
2023-03-06T08:26:26.458Z,14.90
2023-03-06T08:28:55.423Z,15.50
2023-03-06T08:31:35.187Z,15.00
2023-03-06T08:34:08.833Z,15.00
2023-03-06T08:36:36.024Z,15.00
2023-03-06T08:39:03.968Z,15.00
2023-03-06T08:41:31.162Z,15.00
2023-03-06T08:43:58.308Z,15.00
2023-03-06T08:46:26.844Z,14.90
2023-03-06T08:48:54.006Z,14.90
2023-03-06T08:51:21.837Z,14.70
2023-03-06T08:53:49.859Z,15.00
2023-03-06T08:56:33.495Z,14.90
2023-03-06T08:59:02.211Z,15.00
2023-03-06T09:01:32.566Z,14.70
2023-03-06T09:04:02.539Z,15.00
2023-03-06T09:06:32.507Z,14.80
2023-03-06T09:08:59.860Z,14.80
2023-03-06T09:11:27.733Z,14.90
2023-03-06T09:13:55.315Z,14.90
2023-03-06T09:16:23.491Z,14.40
2023-03-06T09:18:52.677Z,14.80
2023-03-06T09:21:22.950Z,14.80
2023-03-06T09:23:50.469Z,14.80
2023-03-06T09:26:17.828Z,14.80
2023-03-06T09:28:44.902Z,14.80
2023-03-06T09:31:20.676Z,14.80
2023-03-06T09:33:48.510Z,14.80
2023-03-06T09:36:20.559Z,14.80
2023-03-06T09:38:49.671Z,14.80
2023-03-06T09:41:26.340Z,14.70
2023-03-06T09:43:58.853Z,14.90
2023-03-06T09:46:42.169Z,15.00
2023-03-06T09:49:31.154Z,15.00
2023-03-06T09:52:03.970Z,15.00
2023-03-06T09:54:46.142Z,15.00
2023-03-06T09:57:35.190Z,15.00
2023-03-06T10:00:08.813Z,15.00
2023-03-06T10:02:56.884Z,15.00
2023-03-06T10:05:34.292Z,15.00
2023-03-06T10:08:06.303Z,15.00
2023-03-06T10:10:44.187Z,15.00
2023-03-06T10:13:28.116Z,14.90
2023-03-06T10:16:03.269Z,14.90
2023-03-06T10:18:30.454Z,15.40
2023-03-06T10:21:13.600Z,15.00
2023-03-06T10:24:09.234Z,14.90
2023-03-06T10:26:48.028Z,14.90
2023-03-06T10:29:28.750Z,14.90
2023-03-06T10:32:04.267Z,14.90
2023-03-06T10:34:37.555Z,14.90
2023-03-06T10:37:19.693Z,14.90
2023-03-06T10:39:51.638Z,14.90
2023-03-06T10:42:18.691Z,14.70
2023-03-06T10:44:45.739Z,14.90
2023-03-06T10:47:34.805Z,15.00
2023-03-06T10:50:26.926Z,14.90
2023-03-06T10:53:15.508Z,15.00
2023-03-06T10:55:54.432Z,15.00
2023-03-06T10:58:30.210Z,15.00
2023-03-06T11:01:07.200Z,15.00
2023-03-06T11:03:36.354Z,15.00
2023-03-06T11:06:15.276Z,15.00
2023-03-06T11:08:44.252Z,15.00
2023-03-06T11:11:36.556Z,15.00
2023-03-06T11:14:17.982Z,15.00
2023-03-06T11:16:53.031Z,15.00
2023-03-06T11:19:27.255Z,15.00
2023-03-06T11:22:06.935Z,15.00
2023-03-06T11:24:42.260Z,15.00
2023-03-06T11:27:23.693Z,15.00
2023-03-06T11:29:55.960Z,15.00
2023-03-06T11:32:24.653Z,14.60
2023-03-06T11:35:04.056Z,14.90
2023-03-06T11:37:46.365Z,15.00
2023-03-06T11:40:20.876Z,14.90
2023-03-06T11:43:05.925Z,14.90
2023-03-06T11:46:17.494Z,14.90
2023-03-06T11:48:53.242Z,15.00
2023-03-06T11:51:25.890Z,15.00
2023-03-06T11:53:54.490Z,15.00
2023-03-06T11:56:35.407Z,15.00
2023-03-06T11:59:21.384Z,15.00
2023-03-06T12:02:32.010Z,14.20
2023-03-06T12:05:37.870Z,15.00
2023-03-06T12:08:17.418Z,15.00
2023-03-06T12:10:52.647Z,15.00
2023-03-06T12:13:43.641Z,15.00
2023-03-06T12:16:39.067Z,15.00
2023-03-06T12:19:12.162Z,15.00
2023-03-06T12:21:39.175Z,15.10
2023-03-06T12:24:51.635Z,15.00
2023-03-06T12:27:49.091Z,15.00
2023-03-06T12:30:39.532Z,15.00
2023-03-06T12:33:40.766Z,15.00
2023-03-06T12:36:40.026Z,15.00
2023-03-06T12:39:18.080Z,15.00
2023-03-06T12:41:57.632Z,16.00
2023-03-06T12:44:37.044Z,14.90
2023-03-06T12:47:11.072Z,14.90
2023-03-06T12:49:42.414Z,14.90
2023-03-06T12:52:21.611Z,15.30
2023-03-06T12:54:52.826Z,14.90
2023-03-06T12:57:23.163Z,14.70
2023-03-06T12:59:50.654Z,14.50
2023-03-06T13:02:46.039Z,14.50
2023-03-06T13:05:30.807Z,14.50
2023-03-06T13:08:13.307Z,14.50
2023-03-06T13:10:43.303Z,14.60
2023-03-06T13:13:45.415Z,14.60
2023-03-06T13:16:21.515Z,14.60
2023-03-06T13:19:01.726Z,14.70
2023-03-06T13:21:54.782Z,14.70
2023-03-06T13:24:24.128Z,14.80
2023-03-06T13:26:56.820Z,14.70
2023-03-06T13:29:36.072Z,15.30
2023-03-06T13:32:04.374Z,14.40
2023-03-06T13:34:31.398Z,14.20
2023-03-06T13:37:13.782Z,14.70
2023-03-06T13:39:59.046Z,13.70
2023-03-06T13:42:31.714Z,13.60
2023-03-06T13:45:25.654Z,13.40
2023-03-06T13:48:37.190Z,13.30
2023-03-06T13:50:47.820Z,13.40
2023-03-06T13:53:31.738Z,13.50
2023-03-06T13:56:35.990Z,13.40
2023-03-06T13:59:28.176Z,13.70
2023-03-06T14:02:16.616Z,13.70
2023-03-06T14:04:58.630Z,13.80
2023-03-06T14:07:36.620Z,13.90
2023-03-06T14:10:13.645Z,13.90
2023-03-06T14:12:41.850Z,13.90
2023-03-06T14:15:16.797Z,13.90
2023-03-06T14:17:58.824Z,13.90
2023-03-06T14:20:42.253Z,14.00
2023-03-06T14:23:23.022Z,13.90
2023-03-06T14:26:21.522Z,14.50
2023-03-06T14:28:58.189Z,14.00
2023-03-06T14:31:32.590Z,14.00
2023-03-06T14:34:07.372Z,14.00
2023-03-06T14:36:35.834Z,14.00
2023-03-06T14:39:08.766Z,14.00
2023-03-06T14:41:36.550Z,14.00
2023-03-06T14:44:26.417Z,14.00
2023-03-06T14:46:56.223Z,14.00
2023-03-06T14:49:25.612Z,14.00
2023-03-06T14:51:55.400Z,14.30
2023-03-06T14:54:36.751Z,14.00
2023-03-06T14:57:14.105Z,14.00
2023-03-06T14:59:56.023Z,14.00
2023-03-06T15:02:27.945Z,14.00
2023-03-06T15:05:00.791Z,14.00
2023-03-06T15:07:32.346Z,14.00
2023-03-06T15:10:03.088Z,14.00
2023-03-06T15:12:33.952Z,14.00
2023-03-06T15:15:10.379Z,14.20
2023-03-06T15:17:42.963Z,14.00
2023-03-06T15:20:44.090Z,14.00
2023-03-06T15:23:22.772Z,14.00
2023-03-06T15:25:58.833Z,13.90
2023-03-06T15:28:30.184Z,14.00
2023-03-06T15:31:01.677Z,14.00
2023-03-06T15:33:28.771Z,14.00
2023-03-06T15:36:02.230Z,14.60
2023-03-06T15:38:44.599Z,14.00
2023-03-06T15:41:24.767Z,14.00
2023-03-06T15:43:51.846Z,14.00
2023-03-06T15:46:19.009Z,14.00
2023-03-06T15:49:17.101Z,14.10
2023-03-06T15:51:44.241Z,14.00
2023-03-06T15:54:12.677Z,14.00
2023-03-06T15:56:42.729Z,14.90
2023-03-06T15:59:22.190Z,14.00
2023-03-06T16:01:50.400Z,14.00
2023-03-06T16:04:18.594Z,14.00
2023-03-06T16:06:45.925Z,14.00
2023-03-06T16:09:13.991Z,14.00
2023-03-06T16:11:44.714Z,14.00
2023-03-06T16:14:25.888Z,14.00
2023-03-06T16:16:54.244Z,14.00
2023-03-06T16:19:26.350Z,14.00
2023-03-06T16:21:57.449Z,14.00
2023-03-06T16:24:26.048Z,14.00
2023-03-06T16:26:54.785Z,14.00
2023-03-06T16:29:24.279Z,14.00
2023-03-06T16:31:52.537Z,14.00
2023-03-06T16:34:19.820Z,13.90
2023-03-06T16:36:49.097Z,13.90
2023-03-06T16:39:18.985Z,13.70
2023-03-06T16:41:46.185Z,14.60
2023-03-06T16:44:13.629Z,13.90
2023-03-06T16:46:45.696Z,13.90
2023-03-06T16:49:22.323Z,13.90
2023-03-06T16:51:49.893Z,13.90
2023-03-06T16:54:16.975Z,13.80
2023-03-06T16:56:44.472Z,13.90
2023-03-06T16:59:12.444Z,14.00
2023-03-06T17:01:42.501Z,14.00
2023-03-06T17:04:09.970Z,14.20
2023-03-06T17:06:37.212Z,14.20
2023-03-06T17:09:04.507Z,14.20
2023-03-06T17:11:31.569Z,14.30
2023-03-06T17:13:58.707Z,14.40
2023-03-06T17:16:25.816Z,14.40
2023-03-06T17:18:54.531Z,14.50
2023-03-06T17:21:21.666Z,14.50
2023-03-06T17:23:50.706Z,14.60
2023-03-06T17:26:18.995Z,14.50
2023-03-06T17:28:47.005Z,14.50
2023-03-06T17:31:23.828Z,14.60
2023-03-06T17:33:52.098Z,14.60
2023-03-06T17:36:19.263Z,14.60
2023-03-06T17:38:46.938Z,14.60
2023-03-06T17:41:14.504Z,14.70
2023-03-06T17:43:41.762Z,14.70
2023-03-06T17:46:11.303Z,14.70
2023-03-06T17:48:39.210Z,14.70
2023-03-06T17:51:06.674Z,14.70
2023-03-06T17:53:33.932Z,14.30
2023-03-06T17:56:04.552Z,14.60
2023-03-06T17:58:32.194Z,14.70
2023-03-06T18:00:59.460Z,14.70
2023-03-06T18:03:26.813Z,14.70
2023-03-06T18:06:03.278Z,14.70
2023-03-06T18:08:30.713Z,14.70
2023-03-06T18:11:04.076Z,14.70
2023-03-06T18:13:36.776Z,14.60
2023-03-06T18:16:05.105Z,14.70
2023-03-06T18:18:32.613Z,14.70
2023-03-06T18:21:10.158Z,14.70
2023-03-06T18:23:38.644Z,14.70
2023-03-06T18:26:14.709Z,14.70
2023-03-06T18:28:44.833Z,14.70
2023-03-06T18:31:24.508Z,14.60
2023-03-06T18:33:53.248Z,14.70
2023-03-06T18:36:25.065Z,14.70
2023-03-06T18:38:52.521Z,14.70
2023-03-06T18:41:20.630Z,14.70
2023-03-06T18:43:55.982Z,14.50
2023-03-06T18:46:24.126Z,14.70
2023-03-06T18:48:51.304Z,14.70
2023-03-06T18:51:19.995Z,15.20
2023-03-06T18:53:47.319Z,14.70
2023-03-06T18:56:21.986Z,15.60
2023-03-06T18:58:50.306Z,14.70
2023-03-06T19:01:17.872Z,14.70
2023-03-06T19:03:46.247Z,14.70
2023-03-06T19:06:16.750Z,14.60
2023-03-06T19:08:44.265Z,14.60
2023-03-06T19:11:16.656Z,14.60
2023-03-06T19:13:44.511Z,14.90
2023-03-06T19:16:21.051Z,14.60
2023-03-06T19:18:48.278Z,14.60
2023-03-06T19:21:20.441Z,14.90
2023-03-06T19:23:48.156Z,14.60
2023-03-06T19:26:16.258Z,14.70
2023-03-06T19:28:43.374Z,14.70
2023-03-06T19:31:14.691Z,14.70
2023-03-06T19:33:42.556Z,15.00
2023-03-06T19:36:12.310Z,14.80
2023-03-06T19:38:39.987Z,14.80
2023-03-06T19:41:13.209Z,14.80
2023-03-06T19:43:41.531Z,14.80
2023-03-06T19:46:13.033Z,14.80
2023-03-06T19:48:41.268Z,14.80
2023-03-06T19:51:09.502Z,14.70
2023-03-06T19:53:36.675Z,14.70
2023-03-06T19:56:13.140Z,14.80
2023-03-06T19:58:40.648Z,14.70
2023-03-06T20:01:16.124Z,14.80
2023-03-06T20:03:43.605Z,14.70
2023-03-06T20:06:14.161Z,14.80
2023-03-06T20:08:42.802Z,14.80
2023-03-06T20:11:22.239Z,14.80
2023-03-06T20:13:50.127Z,15.00
2023-03-06T20:16:18.532Z,14.70
2023-03-06T20:18:45.735Z,14.90
2023-03-06T20:21:13.920Z,14.70
2023-03-06T20:23:41.795Z,14.70
2023-03-06T20:26:11.840Z,14.70
2023-03-06T20:28:40.850Z,14.70
2023-03-06T20:31:16.453Z,14.60
2023-03-06T20:33:44.615Z,15.00
2023-03-06T20:36:22.785Z,14.70
2023-03-06T20:38:50.467Z,14.70
2023-03-06T20:41:20.242Z,14.70
2023-03-06T20:43:47.345Z,14.70
2023-03-06T20:46:15.180Z,14.80
2023-03-06T20:48:43.119Z,14.80
2023-03-06T20:51:19.313Z,14.80
2023-03-06T20:53:48.839Z,14.80
2023-03-06T20:56:18.081Z,14.80
2023-03-06T20:58:45.364Z,14.80
2023-03-06T21:01:23.688Z,14.80
2023-03-06T21:03:51.681Z,14.80
2023-03-06T21:06:19.614Z,14.50
2023-03-06T21:08:47.510Z,14.80
2023-03-06T21:11:15.541Z,14.80
2023-03-06T21:13:43.067Z,14.80
2023-03-06T21:16:12.722Z,14.30
2023-03-06T21:18:40.056Z,14.80
2023-03-06T21:21:18.733Z,14.30
2023-03-06T21:23:47.757Z,14.90
2023-03-06T21:26:20.381Z,14.90
2023-03-06T21:28:47.756Z,14.90
2023-03-06T21:31:17.428Z,14.90
2023-03-06T21:33:45.461Z,14.80
2023-03-06T21:36:13.265Z,14.80
2023-03-06T21:38:40.688Z,14.90
2023-03-06T21:41:12.772Z,14.80
2023-03-06T21:43:40.088Z,14.80
2023-03-06T21:46:07.389Z,15.00
2023-03-06T21:48:34.881Z,14.80
2023-03-06T21:51:07.953Z,14.80
2023-03-06T21:53:35.990Z,14.80
2023-03-06T21:56:03.768Z,14.80
2023-03-06T21:58:31.323Z,14.80
2023-03-06T22:00:58.547Z,14.80
2023-03-06T22:03:26.296Z,14.80
2023-03-06T22:05:53.420Z,14.80
2023-03-06T22:08:21.346Z,14.80
2023-03-06T22:10:48.987Z,14.80
2023-03-06T22:13:16.424Z,14.90
2023-03-06T22:15:51.253Z,14.80
2023-03-06T22:18:18.578Z,14.80
2023-03-06T22:20:45.717Z,14.80
2023-03-06T22:23:12.898Z,14.80
2023-03-06T22:25:40.296Z,14.80
2023-03-06T22:28:07.677Z,14.80
2023-03-06T22:30:34.754Z,14.80
2023-03-06T22:33:01.911Z,14.80
2023-03-06T22:35:29.026Z,14.80
2023-03-06T22:37:56.350Z,14.80
2023-03-06T22:40:23.474Z,15.40
2023-03-06T22:42:50.520Z,14.80
2023-03-06T22:45:17.608Z,14.80
2023-03-06T22:47:46.484Z,14.90
2023-03-06T22:50:13.766Z,14.90
2023-03-06T22:52:40.869Z,14.90
2023-03-06T22:55:08.730Z,14.90
2023-03-06T22:57:35.818Z,14.90
2023-03-06T23:00:03.735Z,14.90
2023-03-06T23:02:35.079Z,14.90
2023-03-06T23:05:02.211Z,14.90
2023-03-06T23:07:29.375Z,14.90
2023-03-06T23:09:56.460Z,15.70
2023-03-06T23:12:23.517Z,14.90
2023-03-06T23:14:51.119Z,14.90
2023-03-06T23:17:18.229Z,14.90
2023-03-06T23:19:45.498Z,14.90
2023-03-06T23:22:14.200Z,15.00
2023-03-06T23:24:41.379Z,14.70
2023-03-06T23:27:08.475Z,14.80
2023-03-06T23:29:35.582Z,15.70
2023-03-06T23:32:03.262Z,14.90
2023-03-06T23:34:30.347Z,14.90
2023-03-06T23:36:57.385Z,14.90
2023-03-06T23:39:24.475Z,14.80
2023-03-06T23:41:51.592Z,14.80
2023-03-06T23:44:18.791Z,14.80
2023-03-06T23:46:45.839Z,14.90
2023-03-06T23:49:12.910Z,14.90
2023-03-06T23:51:40.048Z,14.70
2023-03-06T23:54:07.137Z,14.70
2023-03-06T23:56:34.198Z,14.70
2023-03-06T23:59:01.268Z,14.70
